createdAt,value
2023-11-05T00:01:28.008Z,0.67
2023-11-05T00:03:55.793Z,0.53
2023-11-05T00:06:23.312Z,0.60
2023-11-05T00:08:52.090Z,1.20
2023-11-05T00:11:20.272Z,1.00
2023-11-05T00:13:47.709Z,0.60
2023-11-05T00:16:15.776Z,0.57
2023-11-05T00:18:43.428Z,0.60
2023-11-05T00:21:11.125Z,0.60
2023-11-05T00:23:38.859Z,0.50
2023-11-05T00:26:07.930Z,0.60
2023-11-05T00:28:36.748Z,0.50
2023-11-05T00:31:04.645Z,0.40
2023-11-05T00:33:32.614Z,0.53
2023-11-05T00:36:00.643Z,0.60
2023-11-05T00:38:28.662Z,0.30
2023-11-05T00:40:56.128Z,0.50
2023-11-05T00:43:24.956Z,0.40
2023-11-05T00:45:52.817Z,0.50
2023-11-05T00:48:20.277Z,0.50
2023-11-05T00:50:47.849Z,0.50
2023-11-05T00:53:15.299Z,0.60
2023-11-05T00:55:42.823Z,0.50
2023-11-05T00:58:10.573Z,0.70
2023-11-05T01:00:39.362Z,0.50
2023-11-05T01:03:07.040Z,0.53
2023-11-05T01:05:35.282Z,0.80
2023-11-05T01:08:03.313Z,0.40
2023-11-05T01:10:31.753Z,0.40
2023-11-05T01:13:00.046Z,0.60
2023-11-05T01:15:27.527Z,0.67
2023-11-05T01:17:56.352Z,0.60
2023-11-05T01:20:23.838Z,0.70
2023-11-05T01:22:52.168Z,1.07
2023-11-05T01:25:19.895Z,0.70
2023-11-05T01:27:47.866Z,0.63
2023-11-05T01:30:15.686Z,0.53
2023-11-05T01:32:43.277Z,0.80
2023-11-05T01:35:12.081Z,0.70
2023-11-05T01:37:39.591Z,0.60
2023-11-05T01:40:07.573Z,0.80
2023-11-05T01:42:35.063Z,0.70
2023-11-05T01:45:02.550Z,0.80
2023-11-05T01:47:30.088Z,0.70
2023-11-05T01:49:58.425Z,0.63
2023-11-05T01:52:27.599Z,0.70
2023-11-05T01:54:55.489Z,0.60
2023-11-05T01:57:23.821Z,0.50
2023-11-05T01:59:51.773Z,0.50
2023-11-05T02:02:20.312Z,0.67
2023-11-05T02:04:48.814Z,0.60
2023-11-05T02:07:16.735Z,0.50
2023-11-05T02:09:46.182Z,0.70
2023-11-05T02:12:14.194Z,0.40
2023-11-05T02:14:41.647Z,0.60
2023-11-05T02:17:09.099Z,0.50
2023-11-05T02:19:37.711Z,0.50
2023-11-05T02:22:12.454Z,0.50
2023-11-05T02:24:41.554Z,0.53
2023-11-05T02:27:09.074Z,0.60
2023-11-05T02:29:36.683Z,0.70
2023-11-05T02:32:05.553Z,0.50
2023-11-05T02:34:33.395Z,0.40
2023-11-05T02:37:01.030Z,0.50
2023-11-05T02:39:28.548Z,0.40
2023-11-05T02:41:57.993Z,0.40
2023-11-05T02:44:25.455Z,0.53
2023-11-05T02:46:52.939Z,0.40
2023-11-05T02:49:20.626Z,0.37
2023-11-05T02:51:48.117Z,0.40
2023-11-05T02:54:15.608Z,0.40
2023-11-05T02:56:43.089Z,0.50
2023-11-05T02:59:17.289Z,0.33
2023-11-05T03:01:45.353Z,0.23
2023-11-05T03:04:12.998Z,0.37
2023-11-05T03:06:41.460Z,0.40
2023-11-05T03:09:09.501Z,0.40
2023-11-05T03:11:37.079Z,0.83
2023-11-05T03:14:04.553Z,0.30
2023-11-05T03:16:34.201Z,0.33
2023-11-05T03:19:02.341Z,0.30
2023-11-05T03:21:31.282Z,0.60
2023-11-05T03:24:01.155Z,0.40
2023-11-05T03:26:29.075Z,0.50
2023-11-05T03:28:57.100Z,0.40
2023-11-05T03:31:24.891Z,0.40
2023-11-05T03:33:53.785Z,0.40
2023-11-05T03:36:21.273Z,0.50
2023-11-05T03:38:48.749Z,0.50
2023-11-05T03:41:16.189Z,0.40
2023-11-05T03:43:43.709Z,0.50
2023-11-05T03:46:14.334Z,0.40
2023-11-05T03:48:41.998Z,0.40
2023-11-05T03:51:15.322Z,0.60
2023-11-05T03:53:42.905Z,0.50
2023-11-05T03:56:11.100Z,0.50
2023-11-05T03:58:40.573Z,0.60
2023-11-05T04:01:08.831Z,0.60
2023-11-05T04:03:36.855Z,0.60
2023-11-05T04:06:05.577Z,0.50
2023-11-05T04:08:34.370Z,0.63
2023-11-05T04:11:01.825Z,0.60
2023-11-05T04:13:29.971Z,0.73
2023-11-05T04:16:00.352Z,0.60
2023-11-05T04:18:28.032Z,0.50
2023-11-05T04:20:55.484Z,0.50
2023-11-05T04:23:22.986Z,0.50
2023-11-05T04:25:51.778Z,0.70
2023-11-05T04:28:19.238Z,0.60
2023-11-05T04:30:47.191Z,0.50
2023-11-05T04:33:15.223Z,0.50
2023-11-05T04:35:43.567Z,0.60
2023-11-05T04:38:11.115Z,0.53
2023-11-05T04:40:38.750Z,0.50
2023-11-05T04:43:08.818Z,0.60
2023-11-05T04:45:36.544Z,0.50
2023-11-05T04:48:04.072Z,0.50
2023-11-05T04:50:32.162Z,0.60
2023-11-05T04:53:00.456Z,0.50
2023-11-05T04:55:27.954Z,0.57
2023-11-05T04:57:55.450Z,0.50
2023-11-05T05:00:24.404Z,0.60
2023-11-05T05:02:51.979Z,0.70
2023-11-05T05:05:19.656Z,0.70
2023-11-05T05:07:47.603Z,0.60
2023-11-05T05:10:15.456Z,0.70
2023-11-05T05:12:43.115Z,0.57
2023-11-05T05:15:11.021Z,0.70
2023-11-05T05:17:40.582Z,0.53
2023-11-05T05:20:09.311Z,0.50
2023-11-05T05:22:37.177Z,0.50
2023-11-05T05:25:06.528Z,0.60
2023-11-05T05:27:33.997Z,0.50
2023-11-05T05:30:01.759Z,0.50
2023-11-05T05:32:29.281Z,0.40
2023-11-05T05:34:58.570Z,0.57
2023-11-05T05:37:26.044Z,0.40
2023-11-05T05:39:54.142Z,0.50
2023-11-05T05:42:21.603Z,0.53
2023-11-05T05:44:50.736Z,0.43
2023-11-05T05:47:19.811Z,0.30
2023-11-05T05:49:47.921Z,0.47
2023-11-05T05:52:16.768Z,0.40
2023-11-05T05:54:45.226Z,0.40
2023-11-05T05:57:12.905Z,0.40
2023-11-05T05:59:40.377Z,0.40
2023-11-05T06:02:09.024Z,0.40
2023-11-05T06:04:37.946Z,0.40
2023-11-05T06:07:05.720Z,0.60
2023-11-05T06:09:34.490Z,1.37
2023-11-05T06:12:02.059Z,0.60
2023-11-05T06:14:36.802Z,0.70
2023-11-05T06:17:11.814Z,1.50
2023-11-05T06:19:39.376Z,1.17
2023-11-05T06:22:07.273Z,0.67
2023-11-05T06:24:36.878Z,0.40
2023-11-05T06:27:04.713Z,0.40
2023-11-05T06:29:32.151Z,0.40
2023-11-05T06:31:59.599Z,0.43
2023-11-05T06:34:27.056Z,0.43
2023-11-05T06:36:57.829Z,0.50
2023-11-05T06:39:26.354Z,0.40
2023-11-05T06:41:55.178Z,0.60
2023-11-05T06:44:23.366Z,0.60
2023-11-05T06:46:54.159Z,0.37
2023-11-05T06:49:21.970Z,0.43
2023-11-05T06:51:49.799Z,0.23
2023-11-05T06:54:17.257Z,0.53
2023-11-05T06:56:44.783Z,0.57
2023-11-05T06:59:14.266Z,0.90
2023-11-05T07:01:41.819Z,1.90
2023-11-05T07:04:09.436Z,2.73
2023-11-05T07:06:37.675Z,1.53
2023-11-05T07:09:08.255Z,0.73
2023-11-05T07:11:37.577Z,0.90
2023-11-05T07:14:05.374Z,4.03
2023-11-05T07:16:34.276Z,2.73
2023-11-05T07:19:02.197Z,1.30
2023-11-05T07:21:30.845Z,3.10
2023-11-05T07:23:58.876Z,3.60
2023-11-05T07:26:26.537Z,6.10
2023-11-05T07:28:54.091Z,8.40
2023-11-05T07:31:22.996Z,2.40
2023-11-05T07:33:51.982Z,1.00
2023-11-05T07:36:20.092Z,7.37
2023-11-05T07:38:47.617Z,3.10
2023-11-05T07:41:15.087Z,8.50
2023-11-05T07:43:42.538Z,1.30
2023-11-05T07:46:11.233Z,0.90
2023-11-05T07:48:38.796Z,0.70
2023-11-05T07:51:08.862Z,1.10
2023-11-05T07:53:36.558Z,0.70
2023-11-05T07:56:04.209Z,0.80
2023-11-05T07:58:31.672Z,0.90
2023-11-05T08:00:59.606Z,1.63
2023-11-05T08:03:28.223Z,0.87
2023-11-05T08:05:55.824Z,0.73
2023-11-05T08:08:24.639Z,0.80
2023-11-05T08:10:52.819Z,0.70
2023-11-05T08:13:20.429Z,0.60
2023-11-05T08:15:49.086Z,0.80
2023-11-05T08:18:17.670Z,0.80
2023-11-05T08:20:45.420Z,0.70
2023-11-05T08:23:15.417Z,0.50
2023-11-05T08:25:44.317Z,1.00
2023-11-05T08:28:20.436Z,0.80
2023-11-05T08:30:54.716Z,1.23
2023-11-05T08:33:23.322Z,0.60
2023-11-05T08:35:52.020Z,0.83
2023-11-05T08:38:20.022Z,0.90
2023-11-05T08:40:50.472Z,0.53
2023-11-05T08:43:18.547Z,0.40
2023-11-05T08:45:50.527Z,0.67
2023-11-05T08:48:19.201Z,0.60
2023-11-05T08:50:46.790Z,0.37
2023-11-05T08:53:14.785Z,0.40
2023-11-05T08:55:44.619Z,0.40
2023-11-05T08:58:15.547Z,0.70
2023-11-05T09:00:44.654Z,0.30
2023-11-05T09:03:13.431Z,0.37
2023-11-05T09:05:42.063Z,0.43
2023-11-05T09:08:10.786Z,0.50
2023-11-05T09:10:39.199Z,0.40
2023-11-05T09:13:06.689Z,0.50
2023-11-05T09:15:37.198Z,0.40
2023-11-05T09:18:04.714Z,0.60
2023-11-05T09:20:34.000Z,1.10
2023-11-05T09:23:01.916Z,1.00
2023-11-05T09:25:29.919Z,0.50
2023-11-05T09:27:57.525Z,1.03
2023-11-05T09:30:25.106Z,1.13
2023-11-05T09:32:53.998Z,1.10
2023-11-05T09:35:22.091Z,0.50
2023-11-05T09:37:50.685Z,0.40
2023-11-05T09:40:18.634Z,0.40
2023-11-05T09:42:53.499Z,0.33
2023-11-05T09:45:21.122Z,0.63
2023-11-05T09:47:51.077Z,0.40
2023-11-05T09:50:20.016Z,0.50
2023-11-05T09:52:47.679Z,2.03
2023-11-05T09:55:15.974Z,0.60
2023-11-05T09:57:43.601Z,0.47
2023-11-05T10:00:12.806Z,0.40
2023-11-05T10:02:56.375Z,0.70
2023-11-05T10:05:25.482Z,0.53
2023-11-05T10:07:53.430Z,0.70
2023-11-05T10:10:21.942Z,0.40
2023-11-05T10:12:50.199Z,0.50
2023-11-05T10:15:19.095Z,0.30
2023-11-05T10:17:47.079Z,0.57
2023-11-05T10:20:15.149Z,0.70
2023-11-05T10:22:45.494Z,0.40
2023-11-05T10:25:24.578Z,0.23
2023-11-05T10:27:54.950Z,0.30
2023-11-05T10:30:22.929Z,0.37
2023-11-05T10:32:50.909Z,0.30
2023-11-05T10:35:20.626Z,0.10
2023-11-05T10:37:49.985Z,0.50
2023-11-05T10:40:17.938Z,0.40
2023-11-05T10:42:46.710Z,0.40
2023-11-05T10:45:14.584Z,0.40
2023-11-05T10:47:42.181Z,0.30
2023-11-05T10:50:11.702Z,0.23
2023-11-05T10:52:41.548Z,0.40
2023-11-05T10:55:13.563Z,0.40
2023-11-05T10:57:41.247Z,0.30
2023-11-05T11:00:12.293Z,0.70
2023-11-05T11:02:51.002Z,0.43
2023-11-05T11:05:28.977Z,0.40
2023-11-05T11:07:57.841Z,0.40
2023-11-05T11:10:28.332Z,0.27
2023-11-05T11:12:56.613Z,0.50
2023-11-05T11:15:34.678Z,0.40
2023-11-05T11:18:03.915Z,0.40
2023-11-05T11:20:32.912Z,0.30
2023-11-05T11:23:02.426Z,0.30
2023-11-05T11:25:34.563Z,0.40
2023-11-05T11:28:02.254Z,0.20
2023-11-05T11:30:29.709Z,0.40
2023-11-05T11:32:57.627Z,0.43
2023-11-05T11:35:25.126Z,0.37
2023-11-05T11:37:52.667Z,0.30
2023-11-05T11:40:22.130Z,0.30
2023-11-05T11:42:51.015Z,0.20
2023-11-05T11:45:18.582Z,0.40
2023-11-05T11:47:46.055Z,0.40
2023-11-05T11:50:14.066Z,0.40
2023-11-05T11:52:48.994Z,0.20
2023-11-05T11:55:17.197Z,0.20
2023-11-05T11:57:44.831Z,0.20
2023-11-05T12:00:17.515Z,0.47
2023-11-05T12:02:45.089Z,0.20
2023-11-05T12:05:13.533Z,0.23
2023-11-05T12:07:44.328Z,0.43
2023-11-05T12:10:14.141Z,0.40
2023-11-05T12:12:43.394Z,0.50
2023-11-05T12:15:12.375Z,0.20
2023-11-05T12:17:41.616Z,0.20
2023-11-05T12:20:12.374Z,0.30
2023-11-05T12:22:39.983Z,0.20
2023-11-05T12:25:11.768Z,0.23
2023-11-05T12:27:45.247Z,0.30
2023-11-05T12:30:13.359Z,0.30
2023-11-05T12:32:42.761Z,0.30
2023-11-05T12:35:12.061Z,0.30
2023-11-05T12:37:39.839Z,3.63
2023-11-05T12:40:08.971Z,2.80
2023-11-05T12:42:38.125Z,1.30
2023-11-05T12:45:05.917Z,1.53
2023-11-05T12:47:33.796Z,1.10
2023-11-05T12:50:03.386Z,0.60
2023-11-05T12:52:31.016Z,0.70
2023-11-05T12:54:59.111Z,0.40
2023-11-05T12:57:26.736Z,0.23
2023-11-05T12:59:54.208Z,0.30
2023-11-05T13:02:22.035Z,0.10
2023-11-05T13:04:50.469Z,0.30
2023-11-05T13:07:19.395Z,0.17
2023-11-05T13:09:47.676Z,0.13
2023-11-05T13:12:15.287Z,0.20
2023-11-05T13:14:42.813Z,0.10
2023-11-05T13:17:10.514Z,0.50
2023-11-05T13:19:38.516Z,0.30
2023-11-05T13:22:06.385Z,0.27
2023-11-05T13:24:36.085Z,0.27
2023-11-05T13:27:04.914Z,0.20
2023-11-05T13:29:32.741Z,0.10
2023-11-05T13:32:01.311Z,0.10
2023-11-05T13:34:31.084Z,0.30
2023-11-05T13:36:58.601Z,0.40
2023-11-05T13:39:26.244Z,0.20
2023-11-05T13:41:55.471Z,0.27
2023-11-05T13:44:23.630Z,0.10
2023-11-05T13:46:51.826Z,0.20
2023-11-05T13:49:19.920Z,0.10
2023-11-05T13:51:47.437Z,0.10
2023-11-05T13:54:15.443Z,0.23
2023-11-05T13:56:42.968Z,0.10
2023-11-05T13:59:12.902Z,0.10
2023-11-05T14:01:40.400Z,0.10
2023-11-05T14:04:08.238Z,0.10
2023-11-05T14:06:37.473Z,0.10
2023-11-05T14:09:06.399Z,0.07
2023-11-05T14:11:34.236Z,0.10
2023-11-05T14:14:03.690Z,0.10
2023-11-05T14:16:32.511Z,0.20
2023-11-05T14:19:00.002Z,0.10
2023-11-05T14:21:29.315Z,0.00
2023-11-05T14:23:56.753Z,0.10
2023-11-05T14:26:23.365Z,0.10
2023-11-05T14:28:50.956Z,0.10
2023-11-05T14:31:18.455Z,0.10
2023-11-05T14:33:48.622Z,0.13
2023-11-05T14:36:16.418Z,0.10
2023-11-05T14:38:44.789Z,0.10
2023-11-05T14:41:13.355Z,0.17
2023-11-05T14:43:40.823Z,0.10
2023-11-05T14:46:08.353Z,0.20
2023-11-05T14:48:36.070Z,0.10
2023-11-05T14:51:05.465Z,0.10
2023-11-05T14:53:35.745Z,0.20
2023-11-05T14:56:04.075Z,0.10
2023-11-05T14:58:32.400Z,0.10
2023-11-05T15:01:00.188Z,0.20
2023-11-05T15:03:27.877Z,0.20
2023-11-05T15:05:56.595Z,0.40
2023-11-05T15:08:25.292Z,0.30
2023-11-05T15:10:52.812Z,0.30
2023-11-05T15:13:20.274Z,0.17
2023-11-05T15:15:48.144Z,0.17
2023-11-05T15:18:19.581Z,0.30
2023-11-05T15:20:48.231Z,0.10
2023-11-05T15:23:16.984Z,0.10
2023-11-05T15:25:46.011Z,0.20
2023-11-05T15:28:14.364Z,0.20
2023-11-05T15:30:44.413Z,0.20
2023-11-05T15:33:14.242Z,0.20
2023-11-05T15:35:42.152Z,0.47
2023-11-05T15:38:09.588Z,0.17
2023-11-05T15:40:38.119Z,0.20
2023-11-05T15:43:06.889Z,0.17
2023-11-05T15:45:34.934Z,0.20
2023-11-05T15:48:03.058Z,0.20
2023-11-05T15:50:30.548Z,0.20
2023-11-05T15:52:58.733Z,0.30
2023-11-05T15:55:26.884Z,0.13
2023-11-05T15:57:54.517Z,0.20
2023-11-05T16:00:25.032Z,0.20
2023-11-05T16:02:54.815Z,0.20
2023-11-05T16:05:23.658Z,0.37
2023-11-05T16:07:51.249Z,0.03
2023-11-05T16:10:18.748Z,0.20
2023-11-05T16:12:47.151Z,0.10
2023-11-05T16:15:15.003Z,0.20
2023-11-05T16:17:44.266Z,0.20
2023-11-05T16:20:13.496Z,0.20
2023-11-05T16:22:41.478Z,0.20
2023-11-05T16:25:10.236Z,0.20
2023-11-05T16:27:38.427Z,0.20
2023-11-05T16:30:07.239Z,0.10
2023-11-05T16:32:35.511Z,0.20
2023-11-05T16:35:06.926Z,0.30
2023-11-05T16:37:36.238Z,0.13
2023-11-05T16:40:05.140Z,0.20
2023-11-05T16:42:32.916Z,0.60
2023-11-05T16:45:01.141Z,1.13
2023-11-05T16:47:28.565Z,0.30
2023-11-05T16:49:56.067Z,0.57
2023-11-05T16:52:24.927Z,0.60
2023-11-05T16:54:52.381Z,0.20
2023-11-05T16:57:19.883Z,0.50
2023-11-05T16:59:47.382Z,0.10
2023-11-05T17:02:14.858Z,0.30
2023-11-05T17:04:47.075Z,0.20
2023-11-05T17:07:15.080Z,0.20
2023-11-05T17:09:44.070Z,0.20
2023-11-05T17:12:12.038Z,0.20
2023-11-05T17:14:39.856Z,0.30
2023-11-05T17:17:07.772Z,0.30
2023-11-05T17:19:35.213Z,0.30
2023-11-05T17:22:03.275Z,0.30
2023-11-05T17:24:30.732Z,0.20
2023-11-05T17:27:00.786Z,0.17
2023-11-05T17:29:28.329Z,0.20
2023-11-05T17:32:00.432Z,0.20
2023-11-05T17:34:28.430Z,0.30
2023-11-05T17:36:55.888Z,0.20
2023-11-05T17:39:23.353Z,0.20
2023-11-05T17:41:51.189Z,0.33
2023-11-05T17:44:20.618Z,0.30
2023-11-05T17:46:48.074Z,0.30
2023-11-05T17:49:15.583Z,0.20
2023-11-05T17:51:43.118Z,0.20
2023-11-05T17:54:10.588Z,0.60
2023-11-05T17:56:38.023Z,0.50
2023-11-05T17:59:06.453Z,0.30
2023-11-05T18:01:35.316Z,0.90
2023-11-05T18:04:04.061Z,0.30
2023-11-05T18:06:31.533Z,0.20
2023-11-05T18:08:59.209Z,0.30
2023-11-05T18:11:27.282Z,0.30
2023-11-05T18:13:55.426Z,0.40
2023-11-05T18:16:23.345Z,0.30
2023-11-05T18:18:52.160Z,0.50
2023-11-05T18:21:19.586Z,0.30
2023-11-05T18:23:48.303Z,0.20
2023-11-05T18:26:15.989Z,0.23
2023-11-05T18:28:43.536Z,0.20
2023-11-05T18:31:17.258Z,0.37
2023-11-05T18:33:46.232Z,0.20
2023-11-05T18:36:19.840Z,0.00
2023-11-05T18:38:47.302Z,0.13
2023-11-05T18:41:14.783Z,0.20
2023-11-05T18:43:43.080Z,0.33
2023-11-05T18:46:15.034Z,0.10
2023-11-05T18:48:42.720Z,0.50
2023-11-05T18:51:10.224Z,0.20
2023-11-05T18:53:39.538Z,0.30
2023-11-05T18:56:08.681Z,0.30
2023-11-05T18:58:37.893Z,0.30
2023-11-05T19:01:06.097Z,0.30
2023-11-05T19:03:35.457Z,0.20
2023-11-05T19:06:03.223Z,0.20
2023-11-05T19:08:31.966Z,0.13
2023-11-05T19:11:01.556Z,0.30
2023-11-05T19:13:30.610Z,0.20
2023-11-05T19:15:58.204Z,0.30
2023-11-05T19:18:25.836Z,0.10
2023-11-05T19:20:53.785Z,0.20
2023-11-05T19:23:22.193Z,0.20
2023-11-05T19:25:49.760Z,0.30
2023-11-05T19:28:21.793Z,0.10
2023-11-05T19:30:49.355Z,0.20
2023-11-05T19:33:16.916Z,0.20
2023-11-05T19:35:44.629Z,0.23
2023-11-05T19:38:16.364Z,0.20
2023-11-05T19:40:43.997Z,0.20
2023-11-05T19:43:12.138Z,0.20
2023-11-05T19:45:43.062Z,0.20
2023-11-05T19:48:10.953Z,0.50
2023-11-05T19:50:38.911Z,0.30
2023-11-05T19:53:07.589Z,0.20
2023-11-05T19:55:35.833Z,0.30
2023-11-05T19:58:05.681Z,0.30
2023-11-05T20:00:34.039Z,0.30
2023-11-05T20:03:03.130Z,0.20
2023-11-05T20:05:30.861Z,0.30
2023-11-05T20:07:59.296Z,0.33
2023-11-05T20:10:28.105Z,0.27
2023-11-05T20:12:55.918Z,0.40
2023-11-05T20:15:23.478Z,0.30
2023-11-05T20:17:52.137Z,0.40
2023-11-05T20:20:22.843Z,0.40
2023-11-05T20:22:51.451Z,0.40
2023-11-05T20:25:20.801Z,0.30
2023-11-05T20:27:48.265Z,0.30
2023-11-05T20:30:15.906Z,0.33
2023-11-05T20:32:43.975Z,0.20
2023-11-05T20:35:11.506Z,0.40
2023-11-05T20:37:40.335Z,0.33
2023-11-05T20:40:08.265Z,0.27
2023-11-05T20:42:36.215Z,0.60
2023-11-05T20:45:04.152Z,0.33
2023-11-05T20:47:32.955Z,0.50
2023-11-05T20:50:00.665Z,0.37
2023-11-05T20:52:28.374Z,0.43
2023-11-05T20:54:58.442Z,0.23
2023-11-05T20:57:25.964Z,0.33
2023-11-05T20:59:54.012Z,0.20
2023-11-05T21:02:22.506Z,0.20
2023-11-05T21:04:51.839Z,0.40
2023-11-05T21:07:19.405Z,0.50
2023-11-05T21:09:47.275Z,0.30
2023-11-05T21:12:16.112Z,0.43
2023-11-05T21:14:43.918Z,0.30
2023-11-05T21:17:11.656Z,0.50
2023-11-05T21:19:39.138Z,0.33
2023-11-05T21:22:06.914Z,0.50
2023-11-05T21:24:35.244Z,0.37
2023-11-05T21:27:03.310Z,0.30
2023-11-05T21:29:32.760Z,0.30
2023-11-05T21:32:00.284Z,0.50
2023-11-05T21:34:28.194Z,0.40
2023-11-05T21:36:55.670Z,0.30
2023-11-05T21:39:24.551Z,0.40
2023-11-05T21:41:54.587Z,0.57
2023-11-05T21:44:22.301Z,0.30
2023-11-05T21:46:51.136Z,0.27
2023-11-05T21:49:18.597Z,0.23
2023-11-05T21:51:46.026Z,0.40
2023-11-05T21:54:16.776Z,0.50
2023-11-05T21:56:47.330Z,0.40
2023-11-05T21:59:14.923Z,0.50
2023-11-05T22:01:42.546Z,0.50
2023-11-05T22:04:11.480Z,0.30
2023-11-05T22:06:39.223Z,0.50
2023-11-05T22:09:07.144Z,0.47
2023-11-05T22:11:35.067Z,0.50
2023-11-05T22:14:02.866Z,0.43
2023-11-05T22:16:30.406Z,0.50
2023-11-05T22:18:58.300Z,0.50
2023-11-05T22:21:27.750Z,0.60
2023-11-05T22:23:55.424Z,0.27
2023-11-05T22:26:22.899Z,0.33
2023-11-05T22:28:50.540Z,0.30
2023-11-05T22:31:17.989Z,0.30
2023-11-05T22:33:47.040Z,0.40
2023-11-05T22:36:14.859Z,0.40
2023-11-05T22:38:45.437Z,0.37
2023-11-05T22:41:12.935Z,0.27
2023-11-05T22:43:40.524Z,0.33
2023-11-05T22:46:08.281Z,0.47
2023-11-05T22:48:36.628Z,0.50
2023-11-05T22:51:04.606Z,0.40
2023-11-05T22:53:32.583Z,0.50
2023-11-05T22:56:01.424Z,0.40
2023-11-05T22:58:28.935Z,0.50
2023-11-05T23:00:59.883Z,0.20
2023-11-05T23:03:31.744Z,0.30
2023-11-05T23:05:59.349Z,0.40
2023-11-05T23:08:27.556Z,0.60
2023-11-05T23:10:55.620Z,0.50
2023-11-05T23:13:24.489Z,0.10
2023-11-05T23:15:52.457Z,0.33
2023-11-05T23:18:20.514Z,0.50
2023-11-05T23:20:48.050Z,0.40
2023-11-05T23:23:16.680Z,0.40
2023-11-05T23:25:44.796Z,0.40
2023-11-05T23:28:14.492Z,0.30
2023-11-05T23:30:43.307Z,0.40
2023-11-05T23:33:11.380Z,0.40
2023-11-05T23:35:38.939Z,0.53
2023-11-05T23:38:06.444Z,0.50
2023-11-05T23:40:33.949Z,0.40
2023-11-05T23:43:02.064Z,0.33
2023-11-05T23:45:29.552Z,0.40
2023-11-05T23:47:58.380Z,0.30
2023-11-05T23:50:25.966Z,0.40
2023-11-05T23:52:54.466Z,0.50
2023-11-05T23:55:25.573Z,0.50
2023-11-05T23:57:53.206Z,0.60
